createdAt,value
2022-09-28T00:01:18.389Z,77.56
2022-09-28T00:03:47.341Z,77.52
2022-09-28T00:06:18.630Z,77.45
2022-09-28T00:08:49.220Z,77.48
2022-09-28T00:11:20.217Z,77.41
2022-09-28T00:13:55.602Z,77.30
2022-09-28T00:16:28.114Z,77.24
2022-09-28T00:18:55.780Z,77.17
2022-09-28T00:21:27.126Z,77.12
2022-09-28T00:24:12.668Z,77.13
2022-09-28T00:26:47.905Z,77.10
2022-09-28T00:29:26.454Z,77.05
2022-09-28T00:32:00.630Z,76.96
2022-09-28T00:34:38.040Z,77.01
2022-09-28T00:37:08.443Z,77.11
2022-09-28T00:39:37.729Z,77.18
2022-09-28T00:42:15.740Z,77.34
2022-09-28T00:44:57.798Z,77.40
2022-09-28T00:47:51.816Z,77.45
2022-09-28T00:50:30.671Z,77.61
2022-09-28T00:53:10.692Z,77.78
2022-09-28T00:55:58.450Z,77.85
2022-09-28T00:58:33.608Z,77.97
2022-09-28T01:01:01.791Z,78.15
2022-09-28T01:03:29.776Z,78.29
2022-09-28T01:05:59.973Z,78.28
2022-09-28T01:08:29.733Z,78.15
2022-09-28T01:10:59.601Z,78.16
2022-09-28T01:13:31.016Z,78.13
2022-09-28T01:16:49.810Z,78.02
2022-09-28T01:19:54.931Z,77.93
2022-09-28T01:22:42.775Z,77.94
2022-09-28T01:25:46.742Z,77.87
2022-09-28T01:28:16.306Z,77.77
2022-09-28T01:31:09.938Z,77.95
2022-09-28T01:33:48.282Z,77.84
2022-09-28T01:36:21.112Z,77.94
2022-09-28T01:38:55.993Z,78.02
2022-09-28T01:41:28.532Z,78.06
2022-09-28T01:44:01.811Z,78.06
2022-09-28T01:46:34.251Z,78.11
2022-09-28T01:49:11.364Z,78.24
2022-09-28T01:51:56.127Z,78.13
2022-09-28T01:54:34.863Z,78.08
2022-09-28T01:57:23.811Z,78.06
2022-09-28T02:00:08.295Z,78.26
2022-09-28T02:03:04.350Z,78.53
2022-09-28T02:05:39.750Z,78.51
2022-09-28T02:08:21.565Z,78.41
2022-09-28T02:10:56.342Z,78.14
2022-09-28T02:13:35.283Z,77.98
2022-09-28T02:16:20.024Z,78.17
2022-09-28T02:18:50.477Z,78.24
2022-09-28T02:21:35.630Z,78.21
2022-09-28T02:24:10.934Z,78.18
2022-09-28T02:26:42.940Z,78.08
2022-09-28T02:29:10.757Z,78.06
2022-09-28T02:31:38.534Z,78.22
2022-09-28T02:34:06.135Z,78.35
2022-09-28T02:36:34.292Z,78.45
2022-09-28T02:39:02.176Z,78.40
2022-09-28T02:41:41.494Z,78.24
2022-09-28T02:44:35.471Z,78.16
2022-09-28T02:47:14.354Z,78.38
2022-09-28T02:50:09.092Z,78.51
2022-09-28T02:53:03.512Z,78.68
2022-09-28T02:55:55.261Z,78.62
2022-09-28T02:58:50.302Z,78.75
2022-09-28T03:02:04.562Z,79.03
2022-09-28T03:04:49.779Z,79.41
2022-09-28T03:07:30.664Z,79.59
2022-09-28T03:10:18.300Z,79.66
2022-09-28T03:12:48.856Z,79.64
2022-09-28T03:15:24.352Z,79.65
2022-09-28T03:17:53.045Z,79.61
2022-09-28T03:20:20.868Z,79.62
2022-09-28T03:23:05.903Z,79.61
2022-09-28T03:25:18.283Z,79.66
2022-09-28T03:27:45.971Z,79.72
2022-09-28T03:30:15.474Z,79.75
2022-09-28T03:32:44.859Z,79.80
2022-09-28T03:35:12.802Z,79.87
2022-09-28T03:37:40.209Z,79.85
2022-09-28T03:40:08.701Z,79.91
2022-09-28T03:42:37.371Z,80.06
2022-09-28T03:45:06.712Z,80.21
2022-09-28T03:47:34.600Z,80.25
2022-09-28T03:50:02.226Z,80.32
2022-09-28T03:52:30.119Z,80.47
2022-09-28T03:54:57.734Z,80.55
2022-09-28T03:57:25.348Z,80.65
2022-09-28T03:59:52.944Z,80.69
2022-09-28T04:02:20.396Z,80.65
2022-09-28T04:04:47.927Z,80.55
2022-09-28T04:07:15.475Z,80.54
2022-09-28T04:09:43.339Z,80.39
2022-09-28T04:12:10.839Z,80.29
2022-09-28T04:14:38.405Z,80.10
2022-09-28T04:17:06.826Z,79.82
2022-09-28T04:19:34.376Z,79.70
2022-09-28T04:22:13.855Z,79.65
2022-09-28T04:24:43.094Z,79.63
2022-09-28T04:27:28.995Z,79.70
2022-09-28T04:29:56.567Z,79.68
2022-09-28T04:32:24.076Z,79.65
2022-09-28T04:34:52.010Z,79.67
2022-09-28T04:37:19.558Z,79.76
2022-09-28T04:39:48.589Z,79.86
2022-09-28T04:42:18.192Z,80.00
2022-09-28T04:44:46.051Z,80.18
2022-09-28T04:47:13.693Z,80.33
2022-09-28T04:50:01.339Z,80.36
2022-09-28T04:52:30.609Z,80.50
2022-09-28T04:54:58.156Z,80.55
2022-09-28T04:57:26.747Z,80.53
2022-09-28T04:59:55.054Z,80.61
2022-09-28T05:02:22.545Z,80.68
2022-09-28T05:05:08.816Z,80.78
2022-09-28T05:07:41.438Z,80.80
2022-09-28T05:10:09.229Z,80.74
2022-09-28T05:12:38.228Z,80.74
2022-09-28T05:15:06.605Z,80.64
2022-09-28T05:17:34.458Z,80.69
2022-09-28T05:20:05.032Z,80.68
2022-09-28T05:22:33.077Z,80.67
2022-09-28T05:25:02.493Z,80.60
2022-09-28T05:27:31.967Z,80.47
2022-09-28T05:30:01.299Z,80.62
2022-09-28T05:32:31.282Z,80.83
2022-09-28T05:35:12.915Z,81.08
2022-09-28T05:37:45.424Z,80.91
2022-09-28T05:40:13.675Z,80.95
2022-09-28T05:42:41.941Z,81.07
2022-09-28T05:45:10.478Z,80.83
2022-09-28T05:47:43.029Z,80.82
2022-09-28T05:50:14.835Z,80.99
2022-09-28T05:52:43.962Z,81.30
2022-09-28T05:55:11.655Z,81.27
2022-09-28T05:57:39.257Z,81.36
2022-09-28T06:00:09.693Z,81.41
2022-09-28T06:02:40.237Z,81.53
2022-09-28T06:05:09.662Z,81.55
2022-09-28T06:07:37.067Z,81.23
2022-09-28T06:10:05.860Z,81.08
2022-09-28T06:12:35.283Z,81.13
2022-09-28T06:15:06.457Z,81.11
2022-09-28T06:17:34.239Z,81.00
2022-09-28T06:20:11.314Z,80.89
2022-09-28T06:22:55.016Z,80.86
2022-09-28T06:25:24.445Z,80.94
2022-09-28T06:28:01.422Z,81.28
2022-09-28T06:30:31.958Z,81.00
2022-09-28T06:33:01.744Z,80.98
2022-09-28T06:35:31.665Z,81.33
2022-09-28T06:38:00.027Z,81.23
2022-09-28T06:40:28.569Z,81.84
2022-09-28T06:43:01.870Z,82.16
2022-09-28T06:45:31.114Z,81.40
2022-09-28T06:48:07.969Z,82.19
2022-09-28T06:50:42.616Z,81.15
2022-09-28T06:53:15.520Z,80.45
2022-09-28T06:55:51.143Z,80.38
2022-09-28T06:58:20.531Z,79.62
2022-09-28T07:00:51.337Z,77.89
2022-09-28T07:03:21.717Z,76.64
2022-09-28T07:05:54.587Z,77.71
2022-09-28T07:08:35.708Z,77.60
